Time;durP1;ratioP1;P1;durP2;ratioP2;P2;SDS_P1;SDS_P2;PMS_P1;PMS_P2;Temp;Humidity;BMP_temperature;BMP_pressure;BME280_temperature;BME280_humidity;BME280_pressure;Samples;Min_cycle;Max_cycle;Signal;HPM_P1;HPM_P2
2022/03/11 00:01:52;;;;;;;;;;;;;;;21.69;22.87;96019.75;10442242;28;1843;-48
2022/03/11 00:06:52;;;;;;;;;;;;;;;21.70;22.87;96018.69;10443645;28;1885;-44
2022/03/11 00:11:53;;;;;;;;;;;;;;;21.70;22.84;96018.69;10425141;28;1837;-50
2022/03/11 00:16:54;;;;;;;;;;;;;;;21.74;22.98;96022.34;10408571;28;1957;-44
2022/03/11 00:21:55;;;;;;;;;;;;;;;21.74;22.88;96017.84;10424671;28;1781;-46
2022/03/11 00:26:55;;;;;;;;;;;;;;;21.69;22.77;96014.47;10426071;28;1897;-44
2022/03/11 00:31:56;;;;;;;;;;;;;;;21.72;22.66;96019.97;10441704;28;1811;-44
2022/03/11 00:36:56;;;;;;;;;;;;;;;21.73;22.59;96018.91;10436769;28;1992;-45
2022/03/11 00:41:57;;;;;;;;;;;;;;;21.71;22.59;96017.63;10425184;28;1752;-44
2022/03/11 00:46:57;;;;;;;;;;;;;;;21.74;22.73;96012.56;10424064;28;1783;-47
2022/03/11 00:51:57;;;;;;;;;;;;;;;21.71;22.62;95997.31;10423521;28;1709;-47
2022/03/11 00:56:58;;;;;;;;;;;;;;;21.73;22.44;95997.00;10424872;28;2134;-50
2022/03/11 01:01:59;;;;;;;;;;;;;;;21.76;22.44;96005.16;10424101;28;1751;-45
2022/03/11 01:06:59;;;;;;;;;;;;;;;21.77;22.64;96000.69;10422805;28;1897;-44
2022/03/11 01:12:00;;;;;;;;;;;;;;;21.74;22.56;95996.72;10441683;28;1756;-42
2022/03/11 01:17:00;;;;;;;;;;;;;;;21.78;22.46;95989.09;10410142;28;1965;-44
2022/03/11 01:22:00;;;;;;;;;;;;;;;21.74;22.31;95993.34;10438846;23;2453;-59
2022/03/11 01:27:01;;;;;;;;;;;;;;;21.70;22.39;95979.88;10445113;28;1952;-58
2022/03/11 01:32:02;;;;;;;;;;;;;;;21.74;22.29;95980.13;10439044;28;2063;-58
2022/03/11 01:37:02;;;;;;;;;;;;;;;21.72;22.05;95977.00;10440904;28;2078;-58
2022/03/11 01:42:03;;;;;;;;;;;;;;;21.66;21.74;95962.22;10437255;28;2009;-57
2022/03/11 01:47:03;;;;;;;;;;;;;;;21.67;21.81;95963.81;10436697;28;2387;-59
2022/03/11 01:52:04;;;;;;;;;;;;;;;21.64;21.79;95965.16;10434361;28;2174;-57
2022/03/11 01:57:04;;;;;;;;;;;;;;;21.62;21.77;95961.19;10436655;28;2281;-59
2022/03/11 02:02:05;;;;;;;;;;;;;;;21.58;21.18;95953.06;10435716;28;2548;-58
2022/03/11 02:07:06;;;;;;;;;;;;;;;21.60;21.56;95953.56;10429382;28;1985;-57
2022/03/11 02:12:06;;;;;;;;;;;;;;;21.59;21.76;95957.28;10438241;28;2139;-59
2022/03/11 02:17:09;;;;;;;;;;;;;;;21.59;21.63;95951.22;10438399;28;1906;-58
2022/03/11 02:22:18;;;;;;;;;;;;;;;21.59;21.64;95956.50;10448999;28;2020;-58
2022/03/11 02:27:24;;;;;;;;;;;;;;;21.60;21.67;95948.28;10427596;28;1950;-58
2022/03/11 02:32:26;;;;;;;;;;;;;;;21.59;21.46;95952.00;10445084;28;1941;-59
2022/03/11 02:37:27;;;;;;;;;;;;;;;21.58;21.85;95950.41;10445551;28;2159;-57
2022/03/11 02:42:27;;;;;;;;;;;;;;;21.59;21.23;95951.22;10440261;28;1967;-59
2022/03/11 02:47:27;;;;;;;;;;;;;;;21.54;21.11;95944.13;10436424;28;1924;-58
2022/03/11 02:52:30;;;;;;;;;;;;;;;21.55;21.10;95943.06;10429951;28;2288;-59
2022/03/11 02:57:30;;;;;;;;;;;;;;;21.56;20.81;95939.34;10445387;28;1939;-59
2022/03/11 03:02:31;;;;;;;;;;;;;;;21.57;21.45;95942.78;10442108;28;2046;-57
2022/03/11 03:07:31;;;;;;;;;;;;;;;21.55;21.22;95943.06;10433841;28;1998;-59
2022/03/11 03:12:31;;;;;;;;;;;;;;;21.56;21.26;95943.84;10433034;28;1988;-58
2022/03/11 03:17:32;;;;;;;;;;;;;;;21.55;21.06;95942.28;10436273;28;1975;-56
2022/03/11 03:22:32;;;;;;;;;;;;;;;21.51;21.12;95943.88;10434909;28;1980;-58
2022/03/11 03:27:32;;;;;;;;;;;;;;;21.52;20.90;95938.34;10441411;28;1983;-59
2022/03/11 03:32:33;;;;;;;;;;;;;;;21.49;20.75;95935.47;10437217;28;1944;-58
2022/03/11 03:37:34;;;;;;;;;;;;;;;21.50;20.79;95932.53;10442778;28;2070;-59
2022/03/11 03:42:34;;;;;;;;;;;;;;;21.50;21.05;95929.91;10436231;28;1951;-57
2022/03/11 03:47:35;;;;;;;;;;;;;;;21.50;21.16;95916.72;10449311;28;1938;-58
2022/03/11 03:52:35;;;;;;;;;;;;;;;21.51;21.08;95917.50;10438280;28;2063;-58
2022/03/11 03:57:36;;;;;;;;;;;;;;;21.49;20.83;95914.38;10434658;28;1972;-57
2022/03/11 04:02:37;;;;;;;;;;;;;;;21.49;20.83;95903.81;10438898;28;1897;-56
2022/03/11 04:07:38;;;;;;;;;;;;;;;21.47;20.83;95906.75;10437216;28;1959;-59
2022/03/11 04:12:40;;;;;;;;;;;;;;;21.45;20.84;95914.09;10430613;28;1930;-56
2022/03/11 04:17:57;;;;;;;;;;;;;;;21.47;20.94;95913.84;10431607;28;1918;-58
2022/03/11 04:22:57;;;;;;;;;;;;;;;21.47;20.95;95916.50;10435694;28;1917;-58
2022/03/11 04:27:58;;;;;;;;;;;;;;;21.47;20.72;95921.78;10440051;28;1975;-59
2022/03/11 04:32:58;;;;;;;;;;;;;;;21.47;20.23;95922.56;10431291;28;2009;-59
2022/03/11 04:37:59;;;;;;;;;;;;;;;21.43;20.51;95926.78;10432617;28;2000;-59
2022/03/11 04:42:59;;;;;;;;;;;;;;;21.41;20.44;95921.00;10439661;28;1953;-60
2022/03/11 04:47:59;;;;;;;;;;;;;;;21.39;20.00;95917.84;10442959;28;2026;-58
2022/03/11 04:52:59;;;;;;;;;;;;;;;21.44;20.31;95914.38;10436658;28;1953;-58
2022/03/11 04:58:00;;;;;;;;;;;;;;;21.42;20.38;95913.88;10436814;28;1988;-58
2022/03/11 05:03:01;;;;;;;;;;;;;;;21.42;19.96;95898.06;10435332;28;1881;-60
2022/03/11 05:08:01;;;;;;;;;;;;;;;21.42;20.31;95898.06;10427490;28;2078;-55
2022/03/11 05:13:01;;;;;;;;;;;;;;;21.42;20.18;95890.16;10435179;28;1981;-59
2022/03/11 05:18:02;;;;;;;;;;;;;;;21.41;20.13;95891.97;10444545;28;1969;-59
2022/03/11 05:23:03;;;;;;;;;;;;;;;21.42;20.10;95885.66;10435290;28;2033;-60
2022/03/11 05:28:04;;;;;;;;;;;;;;;21.43;20.39;95889.09;10433563;28;1948;-59
2022/03/11 05:33:04;;;;;;;;;;;;;;;21.43;20.09;95881.94;10437374;28;1998;-57
2022/03/11 05:38:04;;;;;;;;;;;;;;;21.44;20.19;95891.44;10445805;28;1917;-59
2022/03/11 05:43:05;;;;;;;;;;;;;;;21.45;20.38;95894.88;10446448;28;1972;-59
2022/03/11 05:48:10;;;;;;;;;;;;;;;21.43;19.97;95889.09;10432886;28;1951;-59
2022/03/11 05:53:11;;;;;;;;;;;;;;;21.44;20.00;95895.94;10444215;28;1956;-60
2022/03/11 05:58:11;;;;;;;;;;;;;;;21.44;20.06;95893.28;10448968;28;2069;-59
2022/03/11 06:03:12;;;;;;;;;;;;;;;21.48;19.91;95902.22;10438031;28;1844;-58
2022/03/11 06:08:13;;;;;;;;;;;;;;;21.47;20.08;95903.31;10445084;28;1880;-61
2022/03/11 06:13:17;;;;;;;;;;;;;;;21.48;20.07;95913.56;10441275;28;1936;-61
2022/03/11 06:18:18;;;;;;;;;;;;;;;21.46;20.15;95920.19;10438855;28;1961;-61
2022/03/11 06:23:18;;;;;;;;;;;;;;;21.56;20.34;95930.66;10436203;28;1980;-59
2022/03/11 06:28:19;;;;;;;;;;;;;;;21.55;20.40;95929.09;10441775;28;1911;-60
2022/03/11 06:33:20;;;;;;;;;;;;;;;21.53;19.62;95929.38;10440748;28;1959;-60
2022/03/11 06:38:21;;;;;;;;;;;;;;;21.55;20.00;95935.16;10434723;28;1923;-60
2022/03/11 06:43:21;;;;;;;;;;;;;;;21.58;20.02;95941.72;10445559;28;1927;-59
2022/03/11 06:48:22;;;;;;;;;;;;;;;21.58;20.35;95939.06;10440655;28;1921;-61
2022/03/11 06:53:26;;;;;;;;;;;;;;;21.57;19.54;95945.44;10437389;28;1935;-60
2022/03/11 06:58:27;;;;;;;;;;;;;;;21.60;20.62;95950.13;10441032;28;1912;-61
2022/03/11 07:03:27;;;;;;;;;;;;;;;21.59;20.27;95953.84;10436241;28;1963;-61
2022/03/11 07:08:28;;;;;;;;;;;;;;;21.64;20.13;95954.59;10440692;28;1951;-60
2022/03/11 07:13:28;;;;;;;;;;;;;;;21.62;20.60;95951.44;10432714;28;1917;-61
2022/03/11 07:18:28;;;;;;;;;;;;;;;21.58;20.74;95950.41;10437409;28;1998;-63
2022/03/11 07:23:29;;;;;;;;;;;;;;;21.69;22.17;95961.69;10439691;22;2284;-46
2022/03/11 07:28:29;;;;;;;;;;;;;;;21.76;22.34;95962.94;10403631;28;1944;-47
2022/03/11 07:33:30;;;;;;;;;;;;;;;21.80;22.34;95969.25;10411150;28;1975;-50
2022/03/11 07:38:33;;;;;;;;;;;;;;;21.76;22.47;95975.38;10388302;28;1972;-51
2022/03/11 07:43:35;;;;;;;;;;;;;;;21.80;22.84;95966.59;10406406;28;1952;-47
2022/03/11 07:48:35;;;;;;;;;;;;;;;21.80;23.04;95965.84;10408511;28;2854;-47
2022/03/11 07:53:36;;;;;;;;;;;;;;;21.71;22.22;95970.13;10392792;28;1970;-48
2022/03/11 07:58:36;;;;;;;;;;;;;;;21.64;22.26;95969.63;10393037;28;1969;-51
2022/03/11 08:03:37;;;;;;;;;;;;;;;21.67;22.94;95974.38;10407503;28;1929;-46
2022/03/11 08:08:38;;;;;;;;;;;;;;;21.72;23.13;95972.47;10394420;28;1769;-46
2022/03/11 08:13:39;;;;;;;;;;;;;;;21.71;23.05;95970.13;10385884;28;1839;-44
2022/03/11 08:18:39;;;;;;;;;;;;;;;21.72;23.34;95969.06;10400993;28;1910;-51
2022/03/11 08:23:40;;;;;;;;;;;;;;;21.74;23.48;95964.31;10368156;28;1957;-48
2022/03/11 08:28:41;;;;;;;;;;;;;;;21.75;23.45;95950.84;10421252;28;1780;-49
2022/03/11 08:33:42;;;;;;;;;;;;;;;21.75;23.00;95947.41;10405643;28;1849;-49
2022/03/11 08:38:42;;;;;;;;;;;;;;;21.75;23.11;95947.41;10408505;28;1906;-47
2022/03/11 08:43:43;;;;;;;;;;;;;;;21.72;23.36;95945.31;10408523;28;2203;-49
2022/03/11 08:48:43;;;;;;;;;;;;;;;21.77;23.23;95935.50;10407496;28;2440;-44
2022/03/11 08:53:44;;;;;;;;;;;;;;;21.78;23.10;95928.38;10375129;28;2287;-47
2022/03/11 08:58:44;;;;;;;;;;;;;;;21.77;23.21;95926.81;10388887;28;1969;-46
2022/03/11 09:03:45;;;;;;;;;;;;;;;21.80;23.11;95932.31;10389160;28;1753;-46
2022/03/11 09:08:46;;;;;;;;;;;;;;;21.79;23.21;95925.47;10410487;28;1828;-47
2022/03/11 09:13:49;;;;;;;;;;;;;;;21.77;23.24;95929.44;10381149;28;1779;-50
2022/03/11 09:18:49;;;;;;;;;;;;;;;21.75;23.12;95928.94;10384528;28;1906;-51
2022/03/11 09:23:50;;;;;;;;;;;;;;;21.79;23.10;95914.13;10384342;28;1850;-51
2022/03/11 09:28:51;;;;;;;;;;;;;;;21.79;23.36;95924.66;10416248;28;1763;-46
2022/03/11 09:33:51;;;;;;;;;;;;;;;21.79;23.21;95916.75;10402692;28;2152;-51
2022/03/11 09:38:52;;;;;;;;;;;;;;;21.80;23.31;95918.34;10415135;28;1973;-51
2022/03/11 09:43:52;;;;;;;;;;;;;;;21.82;23.14;95919.66;10407276;28;1889;-44
2022/03/11 09:48:53;;;;;;;;;;;;;;;21.82;23.22;95924.94;10401037;28;2395;-43
2022/03/11 09:53:53;;;;;;;;;;;;;;;21.85;23.30;95923.59;10367833;28;1869;-47
2022/03/11 09:58:54;;;;;;;;;;;;;;;21.87;23.21;95921.47;10391987;28;2003;-48
2022/03/11 10:03:54;;;;;;;;;;;;;;;21.84;23.10;95919.41;10390197;28;1813;-47
2022/03/11 10:08:54;;;;;;;;;;;;;;;21.85;23.31;95913.03;10406790;28;1979;-51
2022/03/11 10:14:03;;;;;;;;;;;;;;;21.90;23.07;95904.28;10414256;28;2015;-47
2022/03/11 10:19:07;;;;;;;;;;;;;;;21.85;23.21;95897.19;10400264;28;1914;-44
2022/03/11 10:24:14;;;;;;;;;;;;;;;21.86;23.12;95904.84;10388719;28;2096;-45
2022/03/11 10:29:15;;;;;;;;;;;;;;;21.86;23.43;95902.19;10397428;28;2180;-46
2022/03/11 10:34:34;;;;;;;;;;;;;;;21.91;23.33;95911.94;10373599;28;1767;-50
2022/03/11 10:39:37;;;;;;;;;;;;;;;21.89;23.57;95900.84;10407366;28;1902;-42
2022/03/11 10:44:53;;;;;;;;;;;;;;;21.88;23.63;95901.94;10398774;28;1928;-45
2022/03/11 10:49:54;;;;;;;;;;;;;;;21.87;23.33;95889.78;10402071;28;2364;-50
2022/03/11 10:54:54;;;;;;;;;;;;;;;21.87;23.72;95895.06;10409158;28;1822;-50
2022/03/11 10:59:55;;;;;;;;;;;;;;;21.88;23.38;95893.22;10390017;28;2008;-47
2022/03/11 11:04:55;;;;;;;;;;;;;;;21.88;24.03;95900.06;10376217;28;1885;-50
2022/03/11 11:09:56;;;;;;;;;;;;;;;21.88;23.97;95893.22;10370659;28;1897;-48
2022/03/11 11:14:56;;;;;;;;;;;;;;;21.88;24.03;95895.88;10371183;28;1868;-45
2022/03/11 11:19:58;;;;;;;;;;;;;;;21.84;23.94;95891.13;10385296;28;1906;-50
2022/03/11 11:24:59;;;;;;;;;;;;;;;21.82;24.01;95874.03;10384537;28;1830;-45
2022/03/11 11:29:59;;;;;;;;;;;;;;;21.82;24.22;95880.06;10368007;28;1839;-44
2022/03/11 11:35:18;;;;;;;;;;;;;;;21.81;24.34;95860.03;10367609;28;1806;-42
2022/03/11 11:40:19;;;;;;;;;;;;;;;21.81;24.40;95856.56;10390345;28;2138;-49
2022/03/11 11:45:20;;;;;;;;;;;;;;;21.84;24.40;95858.69;10408067;28;1923;-44
2022/03/11 11:50:20;;;;;;;;;;;;;;;21.80;24.67;95850.50;10375052;28;2011;-47
2022/03/11 11:55:21;;;;;;;;;;;;;;;21.81;24.55;95846.84;10398542;28;1965;-49
2022/03/11 12:00:31;;;;;;;;;;;;;;;21.79;24.46;95843.66;10402823;28;2247;-48
2022/03/11 12:05:38;;;;;;;;;;;;;;;21.81;24.08;95838.94;10410204;28;1837;-49
2022/03/11 12:10:49;;;;;;;;;;;;;;;21.80;24.21;95832.03;10383250;28;2209;-48
2022/03/11 12:15:49;;;;;;;;;;;;;;;21.77;24.21;95834.44;10385087;28;1817;-46
2022/03/11 12:20:50;;;;;;;;;;;;;;;21.79;24.19;95830.47;10416442;28;1913;-45
2022/03/11 12:25:54;;;;;;;;;;;;;;;21.81;24.48;95830.19;10407702;28;1880;-46
2022/03/11 12:30:57;;;;;;;;;;;;;;;21.80;24.33;95816.19;10384764;28;1887;-49
2022/03/11 12:35:58;;;;;;;;;;;;;;;21.78;24.26;95812.28;10374464;28;1821;-49
2022/03/11 12:41:02;;;;;;;;;;;;;;;21.77;24.07;95793.03;10366808;28;1959;-48
2022/03/11 12:46:03;;;;;;;;;;;;;;;21.78;23.95;95783.25;10408673;28;2050;-48
2022/03/11 12:51:04;;;;;;;;;;;;;;;21.75;24.20;95781.16;10377673;28;1832;-51
2022/03/11 12:56:05;;;;;;;;;;;;;;;21.73;24.06;95784.09;10364076;28;1936;-47
2022/03/11 13:01:07;;;;;;;;;;;;;;;21.78;23.88;95775.34;10384982;28;1914;-46
2022/03/11 13:06:09;;;;;;;;;;;;;;;21.76;24.03;95775.59;10393716;28;1881;-46
2022/03/11 13:11:12;;;;;;;;;;;;;;;21.79;23.96;95782.19;10390967;28;2207;-44
2022/03/11 13:16:12;;;;;;;;;;;;;;;21.75;24.14;95767.97;10410178;28;1827;-45
2022/03/11 13:21:13;;;;;;;;;;;;;;;21.77;24.00;95761.38;10405086;28;2133;-51
2022/03/11 13:26:18;;;;;;;;;;;;;;;21.75;24.25;95749.50;10406316;28;1816;-49
2022/03/11 13:31:19;;;;;;;;;;;;;;;21.76;24.31;95756.38;10394298;28;1851;-43
2022/03/11 13:36:20;;;;;;;;;;;;;;;21.76;24.55;95756.38;10379455;28;2472;-45
2022/03/11 13:41:27;;;;;;;;;;;;;;;21.75;24.30;95745.03;10401820;28;1977;-47
2022/03/11 13:46:28;;;;;;;;;;;;;;;21.74;24.48;95738.16;10403141;28;2136;-50
2022/03/11 13:51:39;;;;;;;;;;;;;;;21.75;24.14;95738.97;10379272;28;1867;-47
2022/03/11 13:56:39;;;;;;;;;;;;;;;21.77;24.29;95740.25;10422602;28;2122;-46
2022/03/11 14:01:40;;;;;;;;;;;;;;;21.75;24.23;95752.94;10396272;28;2137;-50
2022/03/11 14:06:40;;;;;;;;;;;;;;;21.73;24.44;95746.38;10413730;28;1852;-48
2022/03/11 14:11:41;;;;;;;;;;;;;;;21.73;24.37;95754.28;10404619;28;1855;-47
2022/03/11 14:16:51;;;;;;;;;;;;;;;21.78;24.63;95739.16;10408913;28;1923;-46
2022/03/11 14:21:51;;;;;;;;;;;;;;;21.75;24.50;95737.13;10406328;28;2037;-47
2022/03/11 14:26:51;;;;;;;;;;;;;;;21.74;24.68;95732.88;10415362;28;1858;-48
2022/03/11 14:31:52;;;;;;;;;;;;;;;21.75;24.62;95733.69;10404895;28;2023;-46
2022/03/11 14:36:52;;;;;;;;;;;;;;;21.75;24.52;95734.47;10424672;28;2311;-45
2022/03/11 14:41:53;;;;;;;;;;;;;;;21.73;24.67;95730.53;10405742;28;1971;-46
2022/03/11 14:46:54;;;;;;;;;;;;;;;21.71;24.60;95722.13;10406023;28;1850;-48
2022/03/11 14:51:54;;;;;;;;;;;;;;;21.70;24.58;95720.56;10406194;28;1820;-47
2022/03/11 14:56:55;;;;;;;;;;;;;;;21.71;24.46;95711.56;10384021;28;1859;-46
2022/03/11 15:01:55;;;;;;;;;;;;;;;21.72;24.65;95699.97;10372173;28;1910;-42
2022/03/11 15:06:56;;;;;;;;;;;;;;;21.70;24.44;95694.94;10403995;28;1866;-44
2022/03/11 15:11:56;;;;;;;;;;;;;;;21.68;24.39;95698.94;10386289;28;1870;-46
2022/03/11 15:16:56;;;;;;;;;;;;;;;21.71;24.51;95701.00;10389076;28;1871;-50
2022/03/11 15:21:56;;;;;;;;;;;;;;;21.72;24.44;95698.09;10387866;28;2001;-51
2022/03/11 15:27:02;;;;;;;;;;;;;;;21.70;24.33;95683.63;10399942;28;1831;-48
2022/03/11 15:32:03;;;;;;;;;;;;;;;21.69;24.40;95689.97;10402324;28;2018;-50
2022/03/11 15:37:03;;;;;;;;;;;;;;;21.70;24.44;95694.19;10386558;28;1797;-46
2022/03/11 15:42:04;;;;;;;;;;;;;;;21.71;24.71;95685.19;10388066;28;1918;-47
2022/03/11 15:47:05;;;;;;;;;;;;;;;21.69;24.79;95689.97;10404005;28;1814;-47
2022/03/11 15:52:06;;;;;;;;;;;;;;;21.69;24.58;95682.03;10400584;28;1901;-45
2022/03/11 15:57:06;;;;;;;;;;;;;;;21.67;24.63;95673.63;10413562;28;2262;-46
2022/03/11 16:02:06;;;;;;;;;;;;;;;21.67;24.75;95673.63;10419673;28;1969;-47
2022/03/11 16:07:07;;;;;;;;;;;;;;;21.69;24.75;95676.75;10384630;28;1860;-49
2022/03/11 16:12:08;;;;;;;;;;;;;;;21.70;24.73;95683.63;10391954;28;1814;-45
2022/03/11 16:17:08;;;;;;;;;;;;;;;21.69;24.53;95676.75;10387676;28;1819;-46
2022/03/11 16:22:09;;;;;;;;;;;;;;;21.70;24.59;95679.13;10382290;28;1981;-48
2022/03/11 16:27:09;;;;;;;;;;;;;;;21.66;24.26;95686.03;10401084;28;2014;-48
2022/03/11 16:32:10;;;;;;;;;;;;;;;21.68;24.36;95675.19;10373686;28;1806;-50
2022/03/11 16:37:10;;;;;;;;;;;;;;;21.68;24.36;95677.81;10408648;28;1857;-43
2022/03/11 16:42:11;;;;;;;;;;;;;;;21.69;24.23;95689.97;10400679;28;1906;-44
2022/03/11 16:47:11;;;;;;;;;;;;;;;21.68;24.43;95683.88;10395098;28;1987;-49
2022/03/11 16:52:15;;;;;;;;;;;;;;;21.68;24.50;95685.72;10377391;28;1923;-51
2022/03/11 16:57:16;;;;;;;;;;;;;;;21.70;24.33;95700.22;10387568;28;1853;-48
2022/03/11 17:02:16;;;;;;;;;;;;;;;21.67;24.77;95707.91;10389615;28;1996;-46
2022/03/11 17:07:16;;;;;;;;;;;;;;;21.66;24.61;95714.25;10392471;28;1841;-47
2022/03/11 17:12:16;;;;;;;;;;;;;;;21.62;24.61;95706.13;10390851;28;2059;-48
2022/03/11 17:17:17;;;;;;;;;;;;;;;21.69;24.72;95705.78;10375752;28;1832;-44
2022/03/11 17:22:17;;;;;;;;;;;;;;;21.64;24.68;95703.19;10388029;28;1975;-50
2022/03/11 17:27:17;;;;;;;;;;;;;;;21.65;25.00;95712.69;10375888;28;1864;-49
2022/03/11 17:32:18;;;;;;;;;;;;;;;21.64;25.25;95711.09;10379395;28;1812;-51
2022/03/11 17:37:18;;;;;;;;;;;;;;;21.67;25.15;95715.84;10401988;28;1819;-46
2022/03/11 17:42:18;;;;;;;;;;;;;;;21.68;25.19;95710.28;10398546;28;1909;-50
2022/03/11 17:47:19;;;;;;;;;;;;;;;21.75;24.82;95704.66;10382649;28;1908;-48
2022/03/11 17:52:19;;;;;;;;;;;;;;;21.74;25.13;95711.03;10396289;28;1922;-48
2022/03/11 17:57:20;;;;;;;;;;;;;;;21.76;25.10;95714.91;10397598;28;1872;-45
2022/03/11 18:02:20;;;;;;;;;;;;;;;21.78;24.84;95725.22;10403602;28;1975;-51
2022/03/11 18:07:21;;;;;;;;;;;;;;;21.73;24.70;95726.06;10387112;28;2342;-46
2022/03/11 18:12:22;;;;;;;;;;;;;;;21.73;24.65;95715.50;10405119;28;1926;-44
2022/03/11 18:17:23;;;;;;;;;;;;;;;21.73;24.56;95714.72;10397106;28;1852;-48
2022/03/11 18:22:24;;;;;;;;;;;;;;;21.72;24.39;95713.16;10396281;28;1938;-43
2022/03/11 18:27:24;;;;;;;;;;;;;;;21.69;24.28;95724.25;10401841;28;1952;-43
2022/03/11 18:32:26;;;;;;;;;;;;;;;21.71;24.42;95720.28;10400331;28;1985;-43
2022/03/11 18:37:27;;;;;;;;;;;;;;;21.69;24.15;95719.78;10399052;28;2091;-43
2022/03/11 18:42:28;;;;;;;;;;;;;;;21.65;24.20;95718.75;10406615;28;2121;-46
2022/03/11 18:47:28;;;;;;;;;;;;;;;21.65;24.25;95726.69;10395577;28;1898;-48
2022/03/11 18:52:29;;;;;;;;;;;;;;;21.69;24.13;95734.81;10391973;28;1871;-47
2022/03/11 18:57:29;;;;;;;;;;;;;;;21.68;23.98;95722.66;10397250;28;1851;-47
2022/03/11 19:02:30;;;;;;;;;;;;;;;21.65;24.04;95725.88;10398436;28;1969;-48
2022/03/11 19:07:30;;;;;;;;;;;;;;;21.64;24.06;95726.94;10406055;28;1898;-51
2022/03/11 19:12:31;;;;;;;;;;;;;;;21.67;24.01;95729.81;10411257;28;1875;-48
2022/03/11 19:17:31;;;;;;;;;;;;;;;21.66;23.92;95738.00;10402329;28;1921;-50
2022/03/11 19:22:31;;;;;;;;;;;;;;;21.66;23.82;95740.63;10405592;28;1926;-49
2022/03/11 19:27:34;;;;;;;;;;;;;;;21.63;23.71;95744.63;10403727;28;1951;-44
2022/03/11 19:32:45;;;;;;;;;;;;;;;21.66;23.57;95745.91;10404120;28;2009;-48
2022/03/11 19:37:45;;;;;;;;;;;;;;;21.65;23.65;95750.41;10417917;28;2089;-49
2022/03/11 19:42:45;;;;;;;;;;;;;;;21.65;23.47;95763.59;10410770;28;1952;-45
2022/03/11 19:47:46;;;;;;;;;;;;;;;21.65;23.46;95760.97;10398291;28;1944;-52
2022/03/11 19:52:47;;;;;;;;;;;;;;;21.66;23.38;95761.72;10379315;28;2092;-49
2022/03/11 19:57:48;;;;;;;;;;;;;;;21.64;23.56;95763.88;10404346;28;1958;-45
2022/03/11 20:02:50;;;;;;;;;;;;;;;21.65;23.49;95763.59;10389648;28;1959;-46
2022/03/11 20:07:57;;;;;;;;;;;;;;;21.64;23.24;95753.31;10403021;28;1934;-46
2022/03/11 20:13:00;;;;;;;;;;;;;;;21.65;23.21;95760.97;10413534;28;1866;-48
2022/03/11 20:18:03;;;;;;;;;;;;;;;21.65;23.15;95760.97;10406134;28;1945;-50
2022/03/11 20:23:04;;;;;;;;;;;;;;;21.65;23.36;95760.16;10383202;28;1812;-46
2022/03/11 20:28:05;;;;;;;;;;;;;;;21.63;23.29;95759.66;10386334;28;1806;-50
2022/03/11 20:33:05;;;;;;;;;;;;;;;21.64;23.13;95759.38;10396310;28;1882;-47
2022/03/11 20:38:06;;;;;;;;;;;;;;;21.67;23.08;95768.59;10397112;28;1906;-49
2022/03/11 20:43:07;;;;;;;;;;;;;;;21.68;23.04;95764.88;10396107;28;1847;-46
2022/03/11 20:48:13;;;;;;;;;;;;;;;21.65;22.94;95762.81;10381221;28;1930;-45
2022/03/11 20:53:14;;;;;;;;;;;;;;;21.64;22.88;95764.66;10373920;28;1834;-49
2022/03/11 20:58:18;;;;;;;;;;;;;;;21.64;23.10;95761.22;10400286;28;1906;-52
2022/03/11 21:03:19;;;;;;;;;;;;;;;21.64;23.01;95761.22;10386282;28;1768;-52
2022/03/11 21:08:19;;;;;;;;;;;;;;;21.63;23.02;95762.31;10381735;28;1923;-49
2022/03/11 21:13:20;;;;;;;;;;;;;;;21.64;23.00;95769.94;10412310;28;1830;-46
2022/03/11 21:18:21;;;;;;;;;;;;;;;21.69;22.84;95771.75;10407777;28;1914;-47
2022/03/11 21:23:22;;;;;;;;;;;;;;;21.70;22.83;95778.59;10397182;28;1795;-47
2022/03/11 21:28:22;;;;;;;;;;;;;;;21.67;22.70;95784.44;10406075;28;1777;-54
2022/03/11 21:33:23;;;;;;;;;;;;;;;21.68;22.63;95770.94;10401369;28;1855;-47
2022/03/11 21:38:23;;;;;;;;;;;;;;;21.72;22.71;95776.47;10396974;28;1949;-44
2022/03/11 21:43:24;;;;;;;;;;;;;;;21.69;22.68;95763.81;10403031;28;2255;-46
2022/03/11 21:48:25;;;;;;;;;;;;;;;21.70;22.60;95768.06;10405342;28;1847;-49
2022/03/11 21:53:25;;;;;;;;;;;;;;;21.71;22.42;95769.59;10405324;28;1945;-48
2022/03/11 21:58:26;;;;;;;;;;;;;;;21.71;22.55;95772.25;10389757;28;1910;-49
2022/03/11 22:03:27;;;;;;;;;;;;;;;21.72;22.25;95779.88;10396470;28;1789;-50
2022/03/11 22:08:28;;;;;;;;;;;;;;;21.74;22.45;95779.63;10380326;28;1855;-52
2022/03/11 22:13:28;;;;;;;;;;;;;;;21.72;22.21;95779.09;10382947;28;1854;-51
2022/03/11 22:18:29;;;;;;;;;;;;;;;21.76;22.38;95777.47;10423803;28;1906;-45
2022/03/11 22:23:29;;;;;;;;;;;;;;;21.79;22.23;95787.47;10396560;28;1764;-46
2022/03/11 22:28:30;;;;;;;;;;;;;;;21.76;22.31;95786.16;10395100;28;1870;-46
2022/03/11 22:33:30;;;;;;;;;;;;;;;21.77;22.34;95782.47;10418816;28;1876;-50
2022/03/11 22:38:32;;;;;;;;;;;;;;;21.74;22.11;95775.09;10415223;28;2016;-49
2022/03/11 22:43:32;;;;;;;;;;;;;;;21.78;22.05;95772.72;10410994;28;1811;-49
2022/03/11 22:48:34;;;;;;;;;;;;;;;21.78;22.08;95776.13;10394274;28;1781;-51
2022/03/11 22:53:36;;;;;;;;;;;;;;;21.74;22.27;95769.06;10391584;28;1837;-44
2022/03/11 22:58:37;;;;;;;;;;;;;;;21.73;22.15;95778.81;10393204;28;1914;-49
2022/03/11 23:03:38;;;;;;;;;;;;;;;21.69;21.46;95777.00;10388377;28;1865;-46
2022/03/11 23:13:57;;;;;;;;;;;;;;;21.66;21.26;95774.91;10427246;28;1939;-49
2022/03/11 23:18:57;;;;;;;;;;;;;;;21.65;21.12;95781.28;10388215;28;1907;-45
2022/03/11 23:23:58;;;;;;;;;;;;;;;21.64;21.20;95779.69;10394951;28;1790;-45
2022/03/11 23:28:59;;;;;;;;;;;;;;;21.63;20.79;95788.69;10386838;28;1846;-50
2022/03/11 23:34:00;;;;;;;;;;;;;;;21.65;20.99;95791.84;10422844;28;1827;-51
2022/03/11 23:39:00;;;;;;;;;;;;;;;21.65;21.30;95789.19;10365683;28;1970;-50
2022/03/11 23:44:04;;;;;;;;;;;;;;;21.70;21.62;95791.78;10379266;28;1738;-51
2022/03/11 23:49:06;;;;;;;;;;;;;;;21.68;21.56;95785.97;10368750;28;1788;-48
2022/03/11 23:54:07;;;;;;;;;;;;;;;21.66;20.86;95796.03;10381547;28;1748;-49
2022/03/11 23:59:08;;;;;;;;;;;;;;;21.73;21.53;95805.22;10391095;28;1911;-50
